createdAt,value
2022-11-04T12:12:04.535Z,0.22
2022-11-04T12:15:10.425Z,3.92
2022-11-04T12:17:56.495Z,0.95
2022-11-04T12:20:46.414Z,1.20
2022-11-04T12:23:34.740Z,6.38
2022-11-04T12:26:11.523Z,0.20
2022-11-04T12:28:42.575Z,1.05
2022-11-04T12:31:31.944Z,0.28
2022-11-04T12:34:19.241Z,0.20
2022-11-04T12:37:00.059Z,0.35
2022-11-04T12:39:36.994Z,0.17
2022-11-04T12:42:34.583Z,0.30
2022-11-04T12:45:22.283Z,0.10
2022-11-04T12:47:51.053Z,0.00
2022-11-04T12:50:21.894Z,0.20
2022-11-04T12:53:14.589Z,0.20
2022-11-04T12:55:48.492Z,0.43
2022-11-04T13:01:01.993Z,0.05
2022-11-04T13:03:45.955Z,8.20
2022-11-04T13:06:50.563Z,0.43
2022-11-04T13:09:42.764Z,0.45
2022-11-04T13:12:21.468Z,1.38
2022-11-04T13:14:54.426Z,0.20
2022-11-04T13:17:31.217Z,0.85
2022-11-04T13:20:04.825Z,0.65
2022-11-04T13:22:38.103Z,0.20
2022-11-04T13:25:24.175Z,2.70
2022-11-04T13:27:53.451Z,2.70
2022-11-04T13:30:24.024Z,0.20
2022-11-04T13:33:13.293Z,0.43
2022-11-04T13:36:22.786Z,1.05
2022-11-04T13:39:01.792Z,0.75
2022-11-04T13:41:39.895Z,1.35
2022-11-04T13:44:31.223Z,0.63
2022-11-04T13:47:04.311Z,2.13
2022-11-04T13:49:37.303Z,5.25
2022-11-04T13:52:14.097Z,0.40
2022-11-04T13:54:53.422Z,3.45
2022-11-04T13:57:31.483Z,0.30
2022-11-04T14:00:11.814Z,1.85
2022-11-04T14:03:00.806Z,1.08
2022-11-04T14:05:28.985Z,5.47
2022-11-04T14:08:03.142Z,1.00
2022-11-04T14:10:49.608Z,0.20
2022-11-04T14:13:39.221Z,0.28
2022-11-04T14:16:17.911Z,0.35
2022-11-04T14:18:49.304Z,7.35
2022-11-04T14:21:24.080Z,0.68
2022-11-04T14:24:16.542Z,0.30
2022-11-04T14:26:47.274Z,0.35
2022-11-04T14:29:20.591Z,2.05
2022-11-04T14:31:57.691Z,1.98
2022-11-04T14:34:36.807Z,0.90
2022-11-04T14:37:20.230Z,0.88
2022-11-04T14:40:00.232Z,0.50
2022-11-04T14:42:52.076Z,0.85
2022-11-04T14:45:25.119Z,0.43
2022-11-04T14:48:01.561Z,0.75
2022-11-04T14:50:29.991Z,5.68
2022-11-04T14:53:05.393Z,7.65
2022-11-04T14:55:33.771Z,26.63
2022-11-04T14:58:24.043Z,12.32
2022-11-04T15:01:01.745Z,19.30
2022-11-04T15:06:40.778Z,17.13
2022-11-04T15:09:24.711Z,7.38
2022-11-04T15:12:42.989Z,13.05
2022-11-04T15:15:28.977Z,31.45
2022-11-04T15:18:21.806Z,19.10
2022-11-04T15:20:59.647Z,4.72
2022-11-04T15:23:35.071Z,14.73
2022-11-04T15:26:05.563Z,19.27
2022-11-04T15:28:41.620Z,9.75
2022-11-04T15:31:12.349Z,7.00
2022-11-04T15:33:46.690Z,2.85
2022-11-04T15:36:37.254Z,16.50
2022-11-04T15:39:16.279Z,12.70
2022-11-04T15:42:04.810Z,2.00
2022-11-04T15:44:35.459Z,0.77
2022-11-04T15:47:20.372Z,1.23
2022-11-04T15:49:52.331Z,3.10
2022-11-04T15:52:27.215Z,0.60
2022-11-04T15:54:59.213Z,0.70
2022-11-04T15:57:32.872Z,0.88
2022-11-04T16:00:09.301Z,1.05
2022-11-04T16:02:50.600Z,4.22
2022-11-04T16:05:29.844Z,2.53
2022-11-04T16:08:27.768Z,0.50
2022-11-04T16:11:28.660Z,0.70
2022-11-04T16:14:15.789Z,4.13
2022-11-04T16:16:48.568Z,3.20
2022-11-04T16:19:23.675Z,6.22
2022-11-04T16:22:05.711Z,1.65
2022-11-04T16:24:37.068Z,4.53
2022-11-04T16:27:11.346Z,4.63
2022-11-04T16:29:43.864Z,2.30
2022-11-04T16:32:24.340Z,2.53
2022-11-04T16:34:56.918Z,2.30
2022-11-04T16:37:27.412Z,2.67
2022-11-04T16:39:55.751Z,3.33
2022-11-04T16:42:24.591Z,2.45
2022-11-04T16:44:59.832Z,1.40
2022-11-04T16:47:31.974Z,4.78
2022-11-04T16:50:02.223Z,5.22
2022-11-04T16:52:31.151Z,5.35
2022-11-04T16:54:59.162Z,3.67
2022-11-04T16:57:27.780Z,2.63
2022-11-04T16:59:57.401Z,6.47
2022-11-04T17:02:31.762Z,2.92
2022-11-04T17:04:59.984Z,3.25
2022-11-04T17:07:47.440Z,3.20
2022-11-04T17:10:19.116Z,4.80
2022-11-04T17:12:48.049Z,6.63
2022-11-04T17:15:17.150Z,3.55
2022-11-04T17:17:45.698Z,4.97
2022-11-04T17:20:16.710Z,4.22
2022-11-04T17:22:47.508Z,5.78
2022-11-04T17:25:19.220Z,3.95
2022-11-04T17:27:48.102Z,5.80
2022-11-04T17:30:17.656Z,4.28
2022-11-04T17:32:46.545Z,3.83
2022-11-04T17:35:15.927Z,4.40
2022-11-04T17:37:44.127Z,12.80
2022-11-04T17:40:17.380Z,15.77
2022-11-04T17:43:11.436Z,8.02
2022-11-04T17:45:44.460Z,10.05
2022-11-04T17:48:14.408Z,6.20
2022-11-04T17:50:42.784Z,5.25
2022-11-04T17:53:11.481Z,21.63
2022-11-04T17:55:40.822Z,8.10
2022-11-04T17:58:09.007Z,13.38
2022-11-04T18:00:36.987Z,7.05
2022-11-04T18:03:06.935Z,9.63
2022-11-04T18:05:35.037Z,20.25
2022-11-04T18:08:03.286Z,14.73
2022-11-04T18:10:31.192Z,10.88
2022-11-04T18:12:59.417Z,7.40
2022-11-04T18:15:27.306Z,15.55
2022-11-04T18:17:54.879Z,7.57
2022-11-04T18:20:22.982Z,25.67
2022-11-04T18:22:50.770Z,11.00
2022-11-04T18:25:19.882Z,16.98
2022-11-04T18:27:49.464Z,9.77
2022-11-04T18:30:17.933Z,11.82
2022-11-04T18:32:45.962Z,17.30
2022-11-04T18:35:14.763Z,10.13
2022-11-04T18:37:46.972Z,8.50
2022-11-04T18:40:16.982Z,10.18
2022-11-04T18:42:44.980Z,11.80
2022-11-04T18:45:13.188Z,16.00
2022-11-04T18:47:41.729Z,17.95
2022-11-04T18:50:10.899Z,14.52
2022-11-04T18:52:39.062Z,15.63
2022-11-04T18:55:08.429Z,16.15
2022-11-04T18:57:36.457Z,12.93
2022-11-04T19:00:05.182Z,14.60
2022-11-04T19:02:33.328Z,16.80
2022-11-04T19:05:01.772Z,14.10
2022-11-04T19:07:29.744Z,12.85
2022-11-04T19:09:58.662Z,18.92
2022-11-04T19:12:45.402Z,13.48
2022-11-04T19:15:13.866Z,10.50
2022-11-04T19:17:41.712Z,18.65
2022-11-04T19:20:12.714Z,10.35
2022-11-04T19:22:41.923Z,13.80
2022-11-04T19:25:11.424Z,11.45
2022-11-04T19:27:39.414Z,10.75
2022-11-04T19:30:08.725Z,20.75
2022-11-04T19:32:36.734Z,9.88
2022-11-04T19:35:05.305Z,8.35
2022-11-04T19:37:33.796Z,30.48
2022-11-04T19:40:02.280Z,18.95
2022-11-04T19:42:49.272Z,10.90
2022-11-04T19:45:18.730Z,12.68
2022-11-04T19:47:47.219Z,20.08
2022-11-04T19:50:15.553Z,10.20
2022-11-04T19:52:43.712Z,12.70
2022-11-04T19:55:13.481Z,14.55
2022-11-04T19:57:42.094Z,21.25
2022-11-04T20:00:12.511Z,17.10
2022-11-04T20:02:40.424Z,13.07
2022-11-04T20:05:09.206Z,23.52
2022-11-04T20:07:39.692Z,11.98
2022-11-04T20:10:08.981Z,19.15
2022-11-04T20:12:56.968Z,10.93
2022-11-04T20:15:26.449Z,6.97
2022-11-04T20:17:54.578Z,15.75
2022-11-04T20:20:23.071Z,12.60
2022-11-04T20:22:51.210Z,10.20
2022-11-04T20:25:19.705Z,8.50
2022-11-04T20:27:47.878Z,10.75
2022-11-04T20:30:18.269Z,7.80
2022-11-04T20:32:46.744Z,19.80
2022-11-04T20:35:15.296Z,12.65
2022-11-04T20:37:43.378Z,13.70
2022-11-04T20:40:13.150Z,8.93
2022-11-04T20:42:48.017Z,18.45
2022-11-04T20:45:19.809Z,8.23
2022-11-04T20:47:50.178Z,10.00
2022-11-04T20:50:19.939Z,10.48
2022-11-04T20:52:49.090Z,11.20
2022-11-04T20:55:18.538Z,10.85
2022-11-04T20:57:46.891Z,14.88
2022-11-04T21:00:15.519Z,12.35
2022-11-04T21:02:43.612Z,15.23
2022-11-04T21:05:12.651Z,14.35
2022-11-04T21:07:40.510Z,9.60
2022-11-04T21:10:09.327Z,16.67
2022-11-04T21:12:37.459Z,14.90
2022-11-04T21:15:26.737Z,12.00
2022-11-04T21:17:54.749Z,15.13
2022-11-04T21:20:23.069Z,16.42
2022-11-04T21:22:51.209Z,17.55
2022-11-04T21:25:19.370Z,17.00
2022-11-04T21:27:47.593Z,12.07
2022-11-04T21:30:16.038Z,11.40
2022-11-04T21:32:43.850Z,15.05
2022-11-04T21:35:12.339Z,12.77
2022-11-04T21:37:40.500Z,13.95
2022-11-04T21:40:09.489Z,18.35
2022-11-04T21:42:38.092Z,10.80
2022-11-04T21:45:06.771Z,20.63
2022-11-04T21:47:34.729Z,8.07
2022-11-04T21:50:03.218Z,9.98
2022-11-04T21:52:32.607Z,15.65
2022-11-04T21:55:00.818Z,14.18
2022-11-04T21:57:28.978Z,12.18
2022-11-04T21:59:57.449Z,9.02
2022-11-04T22:28:21.375Z,7.97
2022-11-04T22:30:49.783Z,11.00
2022-11-04T22:33:17.611Z,12.60
2022-11-04T22:35:46.581Z,18.95
2022-11-04T22:38:14.840Z,12.23
2022-11-04T22:40:43.356Z,11.60
2022-11-04T22:43:11.333Z,10.60
2022-11-04T22:45:40.352Z,12.15
2022-11-04T22:48:08.130Z,12.55
2022-11-04T22:50:36.323Z,13.60
2022-11-04T22:53:04.497Z,7.32
2022-11-04T22:55:33.131Z,5.72
2022-11-04T22:58:01.605Z,7.47
2022-11-04T23:00:30.789Z,7.32
2022-11-04T23:02:59.220Z,9.73
2022-11-04T23:05:28.510Z,12.00
2022-11-04T23:07:57.141Z,12.75
2022-11-04T23:10:44.344Z,6.40
2022-11-04T23:13:30.811Z,6.63
2022-11-04T23:16:19.301Z,8.48
2022-11-04T23:18:51.050Z,6.03
2022-11-04T23:21:57.130Z,9.43
2022-11-04T23:24:44.013Z,9.75
2022-11-04T23:27:32.290Z,9.50
2022-11-04T23:30:20.320Z,9.82
2022-11-04T23:32:49.291Z,6.90
2022-11-04T23:35:36.843Z,8.65
2022-11-04T23:38:05.441Z,6.80
2022-11-04T23:40:33.470Z,8.13
2022-11-04T23:43:02.085Z,15.45
2022-11-04T23:45:49.911Z,7.88
2022-11-04T23:48:36.971Z,7.38
2022-11-04T23:51:23.532Z,6.43
2022-11-04T23:54:10.891Z,6.97
2022-11-04T23:56:57.430Z,6.95
2022-11-04T23:59:44.172Z,4.55
